Time;durP1;ratioP1;P1;durP2;ratioP2;P2;SDS_P1;SDS_P2;PMS_P1;PMS_P2;Temp;Humidity;BMP_temperature;BMP_pressure;BME280_temperature;BME280_humidity;BME280_pressure;Samples;Min_cycle;Max_cycle;Signal;HPM_P1;HPM_P2
2023/06/21 00:00:31;;;;;;;11.95;9.13;;;20.30;99.90;;;;;;5028444;28;20099;-77
2023/06/21 00:02:59;;;;;;;10.35;9.35;;;20.30;99.90;;;;;;5029993;28;20048;-76
2023/06/21 00:05:24;;;;;;;10.52;9.50;;;20.30;99.90;;;;;;5028653;28;20409;-77
2023/06/21 00:07:54;;;;;;;10.43;9.40;;;20.30;99.90;;;;;;5029834;28;20041;-77
2023/06/21 00:10:23;;;;;;;10.95;9.85;;;20.30;99.90;;;;;;5028640;28;20045;-77
2023/06/21 00:12:50;;;;;;;10.40;8.52;;;20.30;99.90;;;;;;5021677;28;20116;-76
2023/06/21 00:15:15;;;;;;;11.55;9.93;;;20.30;99.90;;;;;;5048626;28;20064;-76
2023/06/21 00:17:41;;;;;;;11.98;10.55;;;20.20;99.90;;;;;;5032835;28;20497;-76
2023/06/21 00:20:09;;;;;;;11.00;9.85;;;20.20;99.90;;;;;;5033828;28;20519;-77
2023/06/21 00:22:35;;;;;;;13.10;9.98;;;20.20;99.90;;;;;;5032916;28;20046;-76
2023/06/21 00:25:01;;;;;;;11.68;10.48;;;20.20;99.90;;;;;;5032950;28;20037;-76
2023/06/21 00:27:27;;;;;;;12.80;11.32;;;20.10;99.90;;;;;;5032818;28;20112;-76
2023/06/21 00:29:52;;;;;;;13.30;11.73;;;20.10;99.90;;;;;;5033234;28;20440;-76
2023/06/21 00:32:18;;;;;;;13.70;11.18;;;20.10;99.90;;;;;;5033057;28;20073;-77
2023/06/21 00:34:46;;;;;;;12.18;10.32;;;20.10;99.90;;;;;;5033873;28;20120;-77
2023/06/21 00:37:13;;;;;;;12.80;11.25;;;20.10;99.90;;;;;;5030254;28;20056;-76
2023/06/21 00:39:38;;;;;;;12.50;11.27;;;20.00;99.90;;;;;;5048021;28;20054;-76
2023/06/21 00:42:08;;;;;;;13.00;11.15;;;20.10;99.90;;;;;;5048899;28;20050;-77
2023/06/21 00:44:33;;;;;;;13.15;11.70;;;20.00;99.90;;;;;;5031279;28;20095;-77
2023/06/21 00:46:59;;;;;;;12.52;11.23;;;20.00;99.90;;;;;;5048150;28;20453;-76
2023/06/21 00:49:25;;;;;;;15.95;13.10;;;20.00;99.90;;;;;;5031561;28;20505;-76
2023/06/21 00:51:57;;;;;;;13.45;12.07;;;20.00;99.90;;;;;;5031959;28;20033;-76
2023/06/21 00:54:26;;;;;;;12.27;10.85;;;19.90;99.90;;;;;;5032728;28;20479;-76
2023/06/21 00:56:53;;;;;;;12.40;11.20;;;19.90;99.90;;;;;;5028966;28;20048;-76
2023/06/21 00:59:19;;;;;;;16.60;13.60;;;19.90;99.90;;;;;;5049175;28;20523;-76
2023/06/21 01:01:46;;;;;;;13.20;11.80;;;19.90;99.90;;;;;;5032207;28;20564;-76
2023/06/21 01:04:12;;;;;;;14.93;12.35;;;19.90;99.90;;;;;;5032761;28;20520;-76
2023/06/21 01:07:01;;;;;;;12.88;11.60;;;19.90;99.90;;;;;;5014011;28;20175;-76
2023/06/21 01:09:57;;;;;;;16.63;12.63;;;19.90;99.90;;;;;;5031040;28;20092;-76
2023/06/21 01:12:47;;;;;;;14.85;13.30;;;20.00;99.90;;;;;;5031544;28;20045;-77
2023/06/21 01:15:19;;;;;;;16.58;13.70;;;20.00;99.90;;;;;;5027991;28;20038;-77
2023/06/21 01:17:51;;;;;;;20.27;12.90;;;20.00;99.90;;;;;;5031486;28;20385;-76
2023/06/21 01:20:24;;;;;;;14.00;12.50;;;20.00;99.90;;;;;;5015506;28;20037;-76
2023/06/21 01:22:59;;;;;;;17.58;14.50;;;20.00;99.90;;;;;;5029024;28;20037;-76
2023/06/21 01:25:45;;;;;;;18.35;13.70;;;20.00;99.90;;;;;;5029999;28;20546;-76
2023/06/21 01:28:31;;;;;;;15.40;13.70;;;20.00;99.90;;;;;;5031890;28;20048;-76
2023/06/21 01:30:58;;;;;;;16.85;14.23;;;19.90;99.90;;;;;;5006785;28;20034;-77
2023/06/21 01:33:26;;;;;;;15.15;13.65;;;19.90;99.90;;;;;;5031317;28;20040;-77
2023/06/21 01:35:54;;;;;;;15.20;13.50;;;19.80;99.90;;;;;;5014395;28;20041;-76
2023/06/21 01:38:21;;;;;;;16.95;15.15;;;19.90;99.90;;;;;;5029381;28;20034;-77
2023/06/21 01:40:46;;;;;;;15.63;13.57;;;19.90;99.90;;;;;;5030866;28;20459;-77
2023/06/21 01:43:13;;;;;;;15.52;13.60;;;19.80;99.90;;;;;;5031906;28;20033;-76
2023/06/21 01:45:40;;;;;;;15.90;13.95;;;19.80;99.90;;;;;;5031329;28;20033;-77
2023/06/21 01:48:06;;;;;;;16.00;13.85;;;19.90;99.90;;;;;;5031937;28;20049;-77
2023/06/21 01:50:34;;;;;;;15.77;13.63;;;19.80;99.90;;;;;;5031125;28;20037;-76
2023/06/21 01:53:00;;;;;;;14.57;13.05;;;19.90;99.90;;;;;;5031337;28;20044;-77
2023/06/21 01:55:27;;;;;;;17.13;15.32;;;19.80;99.90;;;;;;5031006;28;20095;-76
2023/06/21 01:57:53;;;;;;;16.27;14.57;;;19.80;99.90;;;;;;5029309;28;20075;-76
2023/06/21 02:00:21;;;;;;;17.38;14.27;;;19.80;99.90;;;;;;5030360;28;20477;-77
2023/06/21 02:03:03;;;;;;;15.93;14.32;;;19.80;99.90;;;;;;5047431;28;20547;-76
2023/06/21 02:05:30;;;;;;;17.65;14.55;;;19.80;99.90;;;;;;5030843;28;20036;-77
2023/06/21 02:07:56;;;;;;;21.75;16.15;;;19.80;99.90;;;;;;5030996;28;20072;-76
2023/06/21 02:10:25;;;;;;;16.60;14.35;;;19.80;99.90;;;;;;5030147;28;20120;-76
2023/06/21 02:12:52;;;;;;;18.77;16.02;;;19.70;99.90;;;;;;5034891;28;20046;-76
2023/06/21 02:15:19;;;;;;;18.60;16.60;;;19.70;99.90;;;;;;5030081;28;20033;-77
2023/06/21 02:17:51;;;;;;;20.25;16.67;;;19.70;99.90;;;;;;5029030;28;20048;-76
2023/06/21 02:20:19;;;;;;;23.00;20.02;;;19.70;99.90;;;;;;5030593;28;20064;-77
2023/06/21 02:22:45;;;;;;;21.50;18.63;;;19.70;99.90;;;;;;5030330;28;20045;-76
2023/06/21 02:25:13;;;;;;;22.00;19.70;;;19.70;99.90;;;;;;5030294;28;20050;-76
2023/06/21 02:27:39;;;;;;;22.92;18.95;;;19.70;99.90;;;;;;5030055;28;20037;-77
2023/06/21 02:30:05;;;;;;;24.40;19.83;;;19.70;99.90;;;;;;5029249;28;20116;-76
2023/06/21 02:32:31;;;;;;;21.58;19.27;;;19.60;99.90;;;;;;5029430;28;20091;-77
2023/06/21 02:34:56;;;;;;;20.42;18.23;;;19.60;99.90;;;;;;5029756;28;20583;-76
2023/06/21 02:37:22;;;;;;;21.42;18.50;;;19.60;99.90;;;;;;5029523;28;20148;-77
2023/06/21 02:39:47;;;;;;;24.65;18.92;;;19.60;99.90;;;;;;5030453;28;20041;-76
2023/06/21 02:42:13;;;;;;;21.35;18.00;;;19.50;99.90;;;;;;5029912;28;20045;-76
2023/06/21 02:44:39;;;;;;;22.88;20.38;;;19.40;99.90;;;;;;5027969;28;20048;-76
2023/06/21 02:47:04;;;;;;;21.95;19.05;;;19.40;99.90;;;;;;5029474;28;20045;-77
2023/06/21 02:49:35;;;;;;;25.23;20.55;;;19.40;99.90;;;;;;5030412;28;20032;-77
2023/06/21 02:52:00;;;;;;;25.20;21.25;;;19.40;99.90;;;;;;5030520;28;20076;-77
2023/06/21 02:54:26;;;;;;;23.05;19.85;;;19.30;99.90;;;;;;5046731;28;20138;-76
2023/06/21 02:56:51;;;;;;;21.88;19.58;;;19.30;99.90;;;;;;5029537;28;20041;-76
2023/06/21 02:59:17;;;;;;;23.33;20.75;;;19.30;99.90;;;;;;5029617;28;20456;-76
2023/06/21 03:01:44;;;;;;;25.65;22.77;;;19.20;99.90;;;;;;5011812;28;20041;-76
2023/06/21 03:04:09;;;;;;;26.90;22.65;;;19.20;99.90;;;;;;5030402;28;20041;-76
2023/06/21 03:06:35;;;;;;;24.85;21.25;;;19.20;99.90;;;;;;5029938;28;20046;-77
2023/06/21 03:09:00;;;;;;;24.85;21.10;;;19.20;99.90;;;;;;5026503;28;20043;-76
2023/06/21 03:11:26;;;;;;;24.75;21.60;;;19.20;99.90;;;;;;5046943;28;20045;-76
2023/06/21 03:13:51;;;;;;;25.88;21.58;;;19.20;99.90;;;;;;5029494;28;20033;-77
2023/06/21 03:16:17;;;;;;;24.85;21.95;;;19.20;99.90;;;;;;5028911;28;20041;-77
2023/06/21 03:18:42;;;;;;;23.45;20.20;;;19.10;99.90;;;;;;5029305;28;20114;-76
2023/06/21 03:21:08;;;;;;;27.83;22.25;;;19.10;99.90;;;;;;5020098;28;20562;-76
2023/06/21 03:23:35;;;;;;;25.85;21.42;;;19.10;99.90;;;;;;5029344;28;20433;-76
2023/06/21 03:26:01;;;;;;;24.45;21.85;;;19.10;99.90;;;;;;5046256;28;20076;-76
2023/06/21 03:28:26;;;;;;;25.00;20.98;;;19.10;99.90;;;;;;5028347;28;20092;-76
2023/06/21 03:30:52;;;;;;;27.05;22.02;;;19.10;99.90;;;;;;5029538;28;20468;-77
2023/06/21 03:33:17;;;;;;;27.30;22.98;;;19.10;99.90;;;;;;5029057;28;20041;-76
2023/06/21 03:35:43;;;;;;;28.10;22.08;;;19.10;99.90;;;;;;5028993;28;20049;-76
2023/06/21 03:38:08;;;;;;;28.73;23.13;;;19.10;99.90;;;;;;5045125;28;20033;-76
2023/06/21 03:40:34;;;;;;;29.10;23.83;;;19.00;99.90;;;;;;5045010;28;20037;-76
2023/06/21 03:43:00;;;;;;;27.40;24.15;;;19.10;99.90;;;;;;5027138;28;20041;-76
2023/06/21 03:45:25;;;;;;;28.33;23.35;;;19.10;99.90;;;;;;5029115;28;20040;-76
2023/06/21 03:47:51;;;;;;;27.60;22.80;;;19.10;99.90;;;;;;5027605;28;20045;-76
2023/06/21 03:50:17;;;;;;;33.33;24.50;;;19.10;99.90;;;;;;5028960;28;20041;-76
2023/06/21 03:52:43;;;;;;;34.78;27.00;;;19.10;99.90;;;;;;5026794;28;20512;-77
2023/06/21 03:55:09;;;;;;;29.13;24.58;;;19.20;99.90;;;;;;5029255;28;20037;-76
2023/06/21 03:57:35;;;;;;;28.88;24.73;;;19.10;99.90;;;;;;5027060;28;20048;-76
2023/06/21 04:00:00;;;;;;;31.58;25.30;;;19.10;99.90;;;;;;5028842;28;20039;-76
2023/06/21 04:02:26;;;;;;;28.50;23.73;;;19.10;99.90;;;;;;5027432;28;20034;-76
2023/06/21 04:04:51;;;;;;;30.27;25.52;;;19.10;99.90;;;;;;5029045;28;20440;-77
2023/06/21 04:07:19;;;;;;;32.53;25.98;;;19.10;99.90;;;;;;5027727;28;20037;-76
2023/06/21 04:09:45;;;;;;;30.63;24.77;;;19.10;99.90;;;;;;5045325;28;20045;-77
2023/06/21 04:12:11;;;;;;;31.08;25.95;;;19.10;99.90;;;;;;5029188;28;20083;-76
2023/06/21 04:14:37;;;;;;;33.58;28.05;;;19.10;99.90;;;;;;5029078;28;20064;-76
2023/06/21 04:17:03;;;;;;;31.92;24.60;;;19.20;99.90;;;;;;5029468;28;20080;-76
2023/06/21 04:19:29;;;;;;;28.52;23.92;;;19.20;99.90;;;;;;5043101;28;20049;-76
2023/06/21 04:21:55;;;;;;;32.90;25.33;;;19.20;99.90;;;;;;5016813;28;20472;-77
2023/06/21 04:24:20;;;;;;;33.80;26.95;;;19.20;99.90;;;;;;5004305;28;20103;-77
2023/06/21 04:26:47;;;;;;;34.92;27.08;;;19.20;99.90;;;;;;5020206;28;20037;-78
2023/06/21 04:29:16;;;;;;;35.35;27.48;;;19.20;99.90;;;;;;5035141;28;20037;-77
2023/06/21 04:31:45;;;;;;;33.33;26.65;;;19.20;99.90;;;;;;5017973;28;20500;-77
2023/06/21 04:34:10;;;;;;;33.90;26.73;;;19.30;99.90;;;;;;5035008;28;20379;-76
2023/06/21 04:36:37;;;;;;;35.13;27.02;;;19.30;99.90;;;;;;5025037;28;20087;-77
2023/06/21 04:39:03;;;;;;;31.80;24.67;;;19.30;99.90;;;;;;5017502;28;20120;-76
2023/06/21 04:41:29;;;;;;;28.63;24.88;;;19.30;99.90;;;;;;5016760;28;20037;-77
2023/06/21 04:43:55;;;;;;;29.30;25.30;;;19.30;99.90;;;;;;5026607;28;20575;-76
2023/06/21 04:46:21;;;;;;;32.05;24.23;;;19.30;99.90;;;;;;5028876;28;20120;-77
2023/06/21 04:48:50;;;;;;;31.88;25.50;;;19.30;99.90;;;;;;5012557;28;20045;-77
2023/06/21 04:51:16;;;;;;;30.50;24.35;;;19.30;99.90;;;;;;5045733;28;20412;-77
2023/06/21 04:53:45;;;;;;;31.35;25.17;;;19.30;99.90;;;;;;5044726;28;20048;-76
2023/06/21 04:56:14;;;;;;;31.65;25.08;;;19.30;99.90;;;;;;5045871;28;20412;-77
2023/06/21 04:58:40;;;;;;;28.25;23.15;;;19.30;99.90;;;;;;5030094;28;20107;-76
2023/06/21 05:01:08;;;;;;;28.73;22.05;;;19.30;99.90;;;;;;5029840;28;20041;-76
2023/06/21 05:03:34;;;;;;;27.95;21.15;;;19.30;99.90;;;;;;5027598;28;20037;-76
2023/06/21 05:06:00;;;;;;;28.38;20.77;;;19.30;99.90;;;;;;5023407;28;20041;-76
2023/06/21 05:08:26;;;;;;;28.15;20.83;;;19.40;99.90;;;;;;5029520;28;20041;-76
2023/06/21 05:10:51;;;;;;;26.35;20.40;;;19.40;99.90;;;;;;5024263;28;20125;-76
2023/06/21 05:13:17;;;;;;;29.30;20.83;;;19.50;99.90;;;;;;5025941;28;20057;-76
2023/06/21 05:15:43;;;;;;;27.10;21.25;;;19.50;99.90;;;;;;5038051;28;20068;-77
2023/06/21 05:18:08;;;;;;;24.20;19.85;;;19.60;99.90;;;;;;5028237;28;20086;-76
2023/06/21 05:20:34;;;;;;;26.73;19.40;;;19.60;99.90;;;;;;5031393;28;20045;-76
2023/06/21 05:23:00;;;;;;;25.17;18.50;;;19.60;99.90;;;;;;5019542;28;20045;-76
2023/06/21 05:25:25;;;;;;;22.98;17.05;;;19.60;99.90;;;;;;5027947;28;20044;-76
2023/06/21 05:27:51;;;;;;;23.88;18.00;;;19.60;99.90;;;;;;5019424;28;20038;-76
2023/06/21 05:30:18;;;;;;;24.67;16.48;;;19.60;99.90;;;;;;5019111;28;20572;-76
2023/06/21 05:32:44;;;;;;;22.40;16.55;;;19.60;99.90;;;;;;5030233;28;20416;-76
2023/06/21 05:35:09;;;;;;;22.50;16.85;;;19.70;99.90;;;;;;5031893;28;20128;-76
2023/06/21 05:37:35;;;;;;;22.42;16.33;;;19.80;99.90;;;;;;5024613;28;20041;-76
2023/06/21 05:40:02;;;;;;;23.95;17.05;;;19.80;99.90;;;;;;5029300;28;20038;-76
2023/06/21 05:42:29;;;;;;;23.98;17.55;;;19.80;99.90;;;;;;5044154;28;20038;-76
2023/06/21 05:44:54;;;;;;;21.52;15.00;;;19.80;99.90;;;;;;5031149;28;20508;-76
2023/06/21 05:47:20;;;;;;;22.48;15.27;;;19.70;99.90;;;;;;5031165;28;20041;-75
2023/06/21 05:49:45;;;;;;;21.27;15.57;;;19.80;99.90;;;;;;5030282;28;20054;-76
2023/06/21 05:52:11;;;;;;;22.85;15.75;;;19.80;99.90;;;;;;5030731;28;20037;-76
2023/06/21 05:54:41;;;;;;;20.05;14.35;;;19.80;99.90;;;;;;5030696;28;20079;-76
2023/06/21 05:57:07;;;;;;;19.38;13.85;;;20.00;99.90;;;;;;5032023;28;20045;-76
2023/06/21 05:59:33;;;;;;;21.83;13.88;;;20.00;99.90;;;;;;5048587;28;20076;-76
2023/06/21 06:01:58;;;;;;;22.08;14.77;;;20.10;99.90;;;;;;5048180;28;20496;-76
2023/06/21 06:04:24;;;;;;;21.35;15.45;;;20.20;99.90;;;;;;5048670;28;20038;-76
2023/06/21 06:06:49;;;;;;;21.83;15.55;;;20.20;99.90;;;;;;5048447;28;20045;-76
2023/06/21 06:09:15;;;;;;;19.02;14.25;;;20.10;99.90;;;;;;5047759;28;20601;-76
2023/06/21 06:11:40;;;;;;;21.40;14.68;;;20.10;99.90;;;;;;5046626;28;20041;-76
2023/06/21 06:14:08;;;;;;;16.52;12.48;;;20.10;99.90;;;;;;5032152;28;20033;-76
2023/06/21 06:16:34;;;;;;;20.55;14.73;;;20.20;99.90;;;;;;5031757;28;20037;-75
2023/06/21 06:18:59;;;;;;;20.80;13.70;;;20.20;99.90;;;;;;5048757;28;20432;-76
2023/06/21 06:21:25;;;;;;;19.27;12.27;;;20.20;99.90;;;;;;5031538;28;20045;-76
2023/06/21 06:23:52;;;;;;;18.08;12.98;;;20.30;99.90;;;;;;5048109;28;20038;-76
2023/06/21 06:26:23;;;;;;;15.75;12.65;;;20.40;99.90;;;;;;5031407;28;20089;-76
2023/06/21 06:28:53;;;;;;;14.20;11.23;;;20.60;99.90;;;;;;5048301;28;20050;-76
2023/06/21 06:31:21;;;;;;;20.65;12.40;;;20.50;99.90;;;;;;5048051;28;20037;-76
2023/06/21 06:33:47;;;;;;;15.43;11.95;;;20.60;99.90;;;;;;5047700;28;20120;-77
2023/06/21 06:36:13;;;;;;;17.20;12.43;;;20.70;99.90;;;;;;5020382;28;20108;-77
2023/06/21 06:38:38;;;;;;;15.18;11.30;;;20.90;99.90;;;;;;5015127;28;20048;-77
2023/06/21 06:41:04;;;;;;;14.13;10.85;;;20.90;99.90;;;;;;5031122;28;20061;-76
2023/06/21 06:43:31;;;;;;;16.17;11.93;;;20.90;99.90;;;;;;5030839;28;20459;-77
2023/06/21 06:45:57;;;;;;;18.40;12.35;;;20.90;99.90;;;;;;5031234;28;20037;-76
2023/06/21 06:48:22;;;;;;;17.70;12.00;;;21.10;99.90;;;;;;5031515;28;20036;-77
2023/06/21 06:50:48;;;;;;;19.80;11.98;;;21.20;99.90;;;;;;5047183;28;20041;-77
2023/06/21 06:53:13;;;;;;;15.10;10.73;;;21.40;99.90;;;;;;5046321;28;20045;-76
2023/06/21 06:55:39;;;;;;;17.38;11.75;;;21.30;99.90;;;;;;5030877;28;20381;-76
2023/06/21 06:58:05;;;;;;;13.52;10.30;;;21.40;99.90;;;;;;5031047;28;20045;-77
2023/06/21 07:00:30;;;;;;;13.57;11.25;;;21.50;99.90;;;;;;5030718;28;20029;-76
2023/06/21 07:02:57;;;;;;;12.98;9.82;;;21.50;99.90;;;;;;5030554;28;20042;-76
2023/06/21 07:05:23;;;;;;;15.75;8.90;;;21.50;99.90;;;;;;5047246;28;20041;-77
2023/06/21 07:07:50;;;;;;;14.77;10.68;;;21.70;99.90;;;;;;5030695;28;20045;-78
2023/06/21 07:10:15;;;;;;;12.30;9.07;;;21.90;99.90;;;;;;5047227;28;20520;-77
2023/06/21 07:12:41;;;;;;;11.75;8.02;;;22.00;99.90;;;;;;5014043;28;20087;-78
2023/06/21 07:15:07;;;;;;;10.02;8.30;;;22.00;99.90;;;;;;5030368;28;20128;-77
2023/06/21 07:17:32;;;;;;;11.73;9.07;;;21.90;99.90;;;;;;5030072;28;20095;-77
2023/06/21 07:19:58;;;;;;;14.45;8.85;;;21.80;99.90;;;;;;5030820;28;20042;-76
2023/06/21 07:22:23;;;;;;;11.68;8.77;;;21.80;99.90;;;;;;5029343;28;20041;-77
2023/06/21 07:24:49;;;;;;;12.85;7.88;;;21.90;99.90;;;;;;5047266;28;20041;-77
2023/06/21 07:27:14;;;;;;;12.55;9.25;;;22.00;99.90;;;;;;5047084;28;20536;-78
2023/06/21 07:29:40;;;;;;;11.40;8.77;;;22.10;99.90;;;;;;5030793;28;20560;-77
2023/06/21 07:32:05;;;;;;;13.75;8.65;;;22.10;99.90;;;;;;5030135;28;20052;-78
2023/06/21 07:34:31;;;;;;;11.20;8.55;;;22.20;99.90;;;;;;5030286;28;20132;-77
2023/06/21 07:36:57;;;;;;;10.55;7.63;;;22.30;99.90;;;;;;5041821;28;20120;-77
2023/06/21 07:39:22;;;;;;;10.85;7.50;;;22.20;99.90;;;;;;5030090;28;20033;-78
2023/06/21 07:41:48;;;;;;;13.10;8.55;;;22.30;99.90;;;;;;5046401;28;20041;-78
2023/06/21 07:44:13;;;;;;;9.73;7.15;;;22.10;99.90;;;;;;5046571;28;20124;-78
2023/06/21 07:46:39;;;;;;;10.68;7.82;;;22.20;99.90;;;;;;5030072;28;20037;-77
2023/06/21 07:49:04;;;;;;;13.25;8.13;;;22.20;99.90;;;;;;5013414;28;20037;-77
2023/06/21 07:51:30;;;;;;;10.32;7.05;;;22.40;99.90;;;;;;5028780;28;20474;-78
2023/06/21 07:53:55;;;;;;;9.73;6.82;;;22.50;99.90;;;;;;5025857;28;20041;-78
2023/06/21 07:56:21;;;;;;;12.00;7.80;;;22.60;99.90;;;;;;5023932;28;20069;-77
2023/06/21 07:58:47;;;;;;;11.57;8.07;;;22.80;99.90;;;;;;5030089;28;20037;-78
2023/06/21 08:01:13;;;;;;;11.35;7.72;;;23.00;99.90;;;;;;5028933;28;20385;-78
2023/06/21 08:03:42;;;;;;;10.98;6.75;;;23.10;99.90;;;;;;5028076;28;20091;-78
2023/06/21 08:06:07;;;;;;;9.95;7.60;;;23.20;99.90;;;;;;5045936;28;20053;-79
2023/06/21 08:08:33;;;;;;;8.80;7.22;;;23.30;99.90;;;;;;5046568;28;20041;-77
2023/06/21 08:10:59;;;;;;;5.90;5.05;;;23.30;99.90;;;;;;5045795;28;20116;-78
2023/06/21 08:13:26;;;;;;;8.90;5.40;;;23.40;99.90;;;;;;5028000;28;20155;-78
2023/06/21 08:15:52;;;;;;;8.13;5.78;;;23.50;99.90;;;;;;5008642;28;20400;-78
2023/06/21 08:18:17;;;;;;;9.00;5.55;;;23.60;99.90;;;;;;5020369;28;20038;-77
2023/06/21 08:20:43;;;;;;;7.80;5.90;;;23.60;99.90;;;;;;5024853;28;20137;-78
2023/06/21 08:23:08;;;;;;;11.07;6.43;;;23.60;99.90;;;;;;5029157;28;20045;-79
2023/06/21 08:25:35;;;;;;;9.43;6.35;;;23.80;99.90;;;;;;5030257;28;20045;-79
2023/06/21 08:28:01;;;;;;;8.82;6.20;;;23.80;99.90;;;;;;5025893;28;20378;-78
2023/06/21 08:30:27;;;;;;;10.00;6.10;;;23.70;99.90;;;;;;5017323;28;20116;-79
2023/06/21 08:32:52;;;;;;;9.38;6.82;;;23.80;99.90;;;;;;5030017;28;20100;-78
2023/06/21 08:35:18;;;;;;;8.25;5.40;;;23.90;99.90;;;;;;5048544;28;20033;-78
2023/06/21 08:37:57;;;;;;;8.43;5.88;;;23.90;99.90;;;;;;5021504;28;20049;-78
2023/06/21 08:40:31;;;;;;;11.10;7.05;;;23.90;99.90;;;;;;5047416;28;20042;-79
2023/06/21 08:42:56;;;;;;;8.00;5.68;;;24.00;99.90;;;;;;5025482;28;20034;-79
2023/06/21 08:45:22;;;;;;;8.52;6.15;;;24.00;99.90;;;;;;5032457;28;20719;-78
2023/06/21 08:47:49;;;;;;;8.15;5.70;;;23.90;99.90;;;;;;5026641;28;20120;-79
2023/06/21 08:50:17;;;;;;;10.02;6.47;;;24.10;99.90;;;;;;5026209;28;20033;-78
2023/06/21 08:52:45;;;;;;;8.40;6.55;;;24.20;99.90;;;;;;5017050;28;20057;-76
2023/06/21 08:55:13;;;;;;;11.05;6.80;;;24.10;99.90;;;;;;5011765;28;20057;-76
2023/06/21 08:57:51;;;;;;;8.98;6.97;;;24.10;99.90;;;;;;5030392;28;20042;-76
2023/06/21 09:00:22;;;;;;;10.02;7.03;;;23.80;99.90;;;;;;5032257;28;20033;-76
2023/06/21 09:02:57;;;;;;;8.73;5.78;;;23.60;99.90;;;;;;5024560;28;20045;-75
2023/06/21 09:05:44;;;;;;;7.35;6.20;;;23.60;99.90;;;;;;5022437;28;20405;-76
2023/06/21 09:08:10;;;;;;;8.23;5.60;;;23.70;99.90;;;;;;5025810;28;20041;-76
2023/06/21 09:10:38;;;;;;;6.95;4.88;;;23.80;99.90;;;;;;5028424;28;20156;-76
2023/06/21 09:13:06;;;;;;;6.03;4.88;;;24.00;99.90;;;;;;5028658;28;20438;-76
2023/06/21 09:15:32;;;;;;;6.32;4.68;;;24.20;99.90;;;;;;5026523;28;20045;-76
2023/06/21 09:17:59;;;;;;;7.70;5.38;;;24.30;99.90;;;;;;5029085;28;20037;-75
2023/06/21 09:20:29;;;;;;;12.02;5.15;;;24.40;99.90;;;;;;5049265;28;20086;-77
2023/06/21 09:22:59;;;;;;;6.57;4.82;;;24.40;99.90;;;;;;5032344;28;20042;-76
2023/06/21 09:25:26;;;;;;;7.28;4.88;;;24.50;99.90;;;;;;5032120;28;20088;-75
2023/06/21 09:27:55;;;;;;;9.63;5.13;;;24.70;99.90;;;;;;5031740;28;20049;-75
2023/06/21 09:30:22;;;;;;;7.55;4.50;;;24.70;99.90;;;;;;5024189;28;20480;-75
2023/06/21 09:32:48;;;;;;;8.90;5.05;;;24.80;99.90;;;;;;5032249;28;20033;-79
2023/06/21 09:35:14;;;;;;;7.45;4.47;;;24.60;99.90;;;;;;5032637;28;20130;-78
2023/06/21 09:37:39;;;;;;;5.47;3.72;;;24.40;99.90;;;;;;5032421;28;20067;-78
2023/06/21 09:40:06;;;;;;;7.45;4.57;;;24.40;99.90;;;;;;5049201;28;20056;-76
2023/06/21 09:42:36;;;;;;;6.78;3.70;;;24.40;99.90;;;;;;5032145;28;20041;-76
2023/06/21 09:45:01;;;;;;;5.32;4.10;;;24.50;99.90;;;;;;5031661;28;20037;-77
2023/06/21 09:47:30;;;;;;;7.05;4.35;;;24.50;99.90;;;;;;5048669;28;20103;-75
2023/06/21 09:49:56;;;;;;;5.47;3.85;;;24.50;99.90;;;;;;5048862;28;20052;-78
2023/06/21 09:52:22;;;;;;;5.55;4.03;;;24.50;99.90;;;;;;5032181;28;20417;-79
2023/06/21 09:54:48;;;;;;;6.20;3.50;;;24.60;99.90;;;;;;5032021;28;20045;-78
2023/06/21 09:57:15;;;;;;;4.47;2.97;;;24.60;99.90;;;;;;5032188;28;20042;-78
2023/06/21 09:59:40;;;;;;;8.07;3.97;;;24.80;99.90;;;;;;5048793;28;20516;-78
2023/06/21 10:02:07;;;;;;;6.03;3.55;;;24.90;99.90;;;;;;5048308;28;20068;-79
2023/06/21 10:04:41;;;;;;;6.55;3.42;;;24.90;99.90;;;;;;5031983;28;20041;-79
2023/06/21 10:07:07;;;;;;;4.45;3.00;;;24.60;99.90;;;;;;5032025;28;20047;-78
2023/06/21 10:09:37;;;;;;;5.93;3.42;;;24.80;99.90;;;;;;5032008;28;20124;-76
2023/06/21 10:12:13;;;;;;;6.00;4.10;;;25.10;99.90;;;;;;5031623;28;20045;-75
2023/06/21 10:14:40;;;;;;;5.47;3.30;;;25.10;99.90;;;;;;5031924;28;20037;-76
2023/06/21 10:17:06;;;;;;;4.57;3.50;;;25.20;99.90;;;;;;5029796;28;20055;-76
2023/06/21 10:19:33;;;;;;;4.72;3.35;;;25.20;99.90;;;;;;5048099;28;20042;-77
2023/06/21 10:22:10;;;;;;;5.57;3.88;;;25.20;99.90;;;;;;5046769;28;20037;-76
2023/06/21 10:24:39;;;;;;;4.30;3.58;;;25.30;99.90;;;;;;5032010;28;20409;-75
2023/06/21 10:27:06;;;;;;;5.63;3.97;;;25.10;99.90;;;;;;5031697;28;20049;-78
2023/06/21 10:29:36;;;;;;;6.57;3.38;;;25.20;99.90;;;;;;5048029;28;20056;-76
2023/06/21 10:32:05;;;;;;;3.80;2.90;;;25.10;99.90;;;;;;5031319;28;20064;-76
2023/06/21 10:35:04;;;;;;;4.75;2.97;;;25.40;99.90;;;;;;5031388;28;20041;-77
2023/06/21 10:38:03;;;;;;;3.83;3.08;;;25.70;99.90;;;;;;5031258;28;20045;-77
2023/06/21 10:40:29;;;;;;;4.35;3.25;;;26.10;99.90;;;;;;5048014;28;20511;-76
2023/06/21 10:42:57;;;;;;;5.00;2.97;;;26.20;99.90;;;;;;5029493;28;20041;-77
2023/06/21 10:45:23;;;;;;;3.60;2.95;;;26.50;99.90;;;;;;5030436;28;20038;-77
2023/06/21 10:47:52;;;;;;;4.13;3.00;;;26.80;99.90;;;;;;5029969;28;20037;-78
2023/06/21 10:50:20;;;;;;;3.72;2.50;;;27.10;99.90;;;;;;5031700;28;20037;-78
2023/06/21 10:52:47;;;;;;;5.03;2.80;;;27.20;99.90;;;;;;5032279;28;20037;-79
2023/06/21 10:55:13;;;;;;;4.72;2.70;;;27.10;99.90;;;;;;5031385;28;20080;-79
2023/06/21 10:57:40;;;;;;;3.70;2.60;;;26.70;99.90;;;;;;5031135;28;20073;-79
2023/06/21 11:00:08;;;;;;;3.80;2.40;;;26.40;99.90;;;;;;5031197;28;20050;-79
2023/06/21 11:02:34;;;;;;;2.90;2.40;;;26.30;99.90;;;;;;5032645;28;20037;-79
2023/06/21 11:05:20;;;;;;;3.75;2.65;;;26.20;99.90;;;;;;5048949;28;20440;-77
2023/06/21 11:07:58;;;;;;;3.58;2.70;;;26.30;99.90;;;;;;5030714;28;20056;-77
2023/06/21 11:10:31;;;;;;;4.18;2.60;;;26.70;99.90;;;;;;5030918;28;20084;-77
2023/06/21 11:12:57;;;;;;;;;;;26.90;99.90;;;;;;5030955;28;20045;-77
2023/06/21 11:15:26;;;;;;;3.35;2.45;;;27.10;99.90;;;;;;5014308;28;19917;-77
2023/06/21 11:18:18;;;;;;;4.10;2.50;;;26.90;99.90;;;;;;5047038;28;20408;-77
2023/06/21 11:20:46;;;;;;;4.80;3.13;;;26.80;99.90;;;;;;5029543;28;20042;-77
2023/06/21 11:23:16;;;;;;;4.57;3.20;;;26.50;99.90;;;;;;5029429;28;20469;-77
2023/06/21 11:26:14;;;;;;;3.28;2.53;;;26.50;99.90;;;;;;5030348;28;20037;-76
2023/06/21 11:28:48;;;;;;;3.85;2.65;;;26.50;99.90;;;;;;5029973;28;20049;-76
2023/06/21 11:31:18;;;;;;;4.78;2.70;;;26.70;99.90;;;;;;5030285;28;20041;-77
2023/06/21 11:33:46;;;;;;;3.55;2.92;;;26.80;99.90;;;;;;5030278;28;20140;-76
2023/06/21 11:36:12;;;;;;;4.13;2.83;;;26.80;99.90;;;;;;5030155;28;20043;-77
2023/06/21 11:38:47;;;;;;;5.40;3.17;;;26.80;99.90;;;;;;5030318;28;20041;-77
2023/06/21 11:41:53;;;;;;;4.40;2.70;;;26.80;99.90;;;;;;5030268;28;20048;-75
2023/06/21 11:44:25;;;;;;;3.53;2.47;;;26.90;99.90;;;;;;5028331;28;20099;-76
2023/06/21 11:47:04;;;;;;;4.80;3.50;;;27.30;99.90;;;;;;5030078;28;20041;-76
2023/06/21 11:49:33;;;;;;;5.68;3.55;;;27.00;99.90;;;;;;5030554;28;20074;-75
2023/06/21 11:52:05;;;;;;;6.88;3.00;;;26.80;99.90;;;;;;5046396;28;20045;-75
2023/06/21 11:54:36;;;;;;;8.52;3.72;;;26.90;99.90;;;;;;5046662;28;20053;-75
2023/06/21 11:57:05;;;;;;;4.25;3.05;;;26.70;99.90;;;;;;5029871;28;20068;-76
2023/06/21 11:59:32;;;;;;;7.60;3.47;;;26.80;99.90;;;;;;5029537;28;20496;-76
2023/06/21 12:02:16;;;;;;;3.88;2.47;;;27.30;99.90;;;;;;5029848;28;20045;-77
2023/06/21 12:04:43;;;;;;;4.63;3.03;;;27.60;99.90;;;;;;5046406;28;20120;-75
2023/06/21 12:07:10;;;;;;;7.03;3.10;;;27.70;99.90;;;;;;5029714;28;20086;-75
2023/06/21 12:09:38;;;;;;;4.85;2.70;;;27.90;99.90;;;;;;5045379;28;20124;-75
2023/06/21 12:12:07;;;;;;;3.28;2.80;;;28.00;99.90;;;;;;5029480;28;20037;-76
2023/06/21 12:14:34;;;;;;;3.92;2.50;;;28.60;99.90;;;;;;5030077;28;20072;-76
2023/06/21 12:17:00;;;;;;;4.72;2.60;;;28.80;99.90;;;;;;5029670;28;20037;-75
2023/06/21 12:19:26;;;;;;;3.97;2.80;;;29.20;99.90;;;;;;5046321;28;20037;-75
2023/06/21 12:22:02;;;;;;;4.25;2.22;;;29.40;99.90;;;;;;5029545;28;20412;-75
2023/06/21 12:24:28;;;;;;;2.70;1.95;;;29.60;99.90;;;;;;5046710;28;20064;-75
2023/06/21 12:26:57;;;;;;;3.25;2.40;;;29.60;99.90;;;;;;5029640;28;20037;-75
2023/06/21 12:29:23;;;;;;;3.13;2.20;;;29.20;99.90;;;;;;5046260;28;20049;-75
2023/06/21 12:31:48;;;;;;;4.35;2.20;;;29.10;99.90;;;;;;5046003;28;20037;-76
2023/06/21 12:34:16;;;;;;;3.97;2.10;;;29.10;99.90;;;;;;5046240;28;20140;-75
2023/06/21 12:36:45;;;;;;;6.70;3.22;;;29.30;99.90;;;;;;5029719;28;20420;-76
2023/06/21 12:39:12;;;;;;;4.00;2.38;;;29.40;99.90;;;;;;5029538;28;20037;-76